Time;durP1;ratioP1;P1;durP2;ratioP2;P2;SDS_P1;SDS_P2;PMS_P1;PMS_P2;Temp;Humidity;BMP_temperature;BMP_pressure;BME280_temperature;BME280_humidity;BME280_pressure;Samples;Min_cycle;Max_cycle;Signal;HPM_P1;HPM_P2
2022/06/08 00:01:01;;;;;;;3.00;1.63;;;;;;;16.99;91.72;97878.78;4141988;28;21134;-86
2022/06/08 00:03:09;;;;;;;4.77;2.20;;;;;;;16.95;92.99;97882.69;4127445;28;20727;-85
2022/06/08 00:05:12;;;;;;;2.63;1.80;;;;;;;16.93;92.27;97886.44;4145504;28;20632;-86
2022/06/08 00:07:16;;;;;;;2.97;1.97;;;;;;;16.89;92.72;97878.00;4130470;28;20645;-85
2022/06/08 00:09:20;;;;;;;4.10;2.10;;;;;;;16.84;91.06;97882.03;4122500;28;20727;-85
2022/06/08 00:11:23;;;;;;;3.30;2.00;;;;;;;16.80;91.24;97880.69;4106554;28;21056;-85
2022/06/08 00:13:26;;;;;;;3.13;1.93;;;;;;;16.77;92.11;97870.47;4122606;28;20731;-85
2022/06/08 00:15:29;;;;;;;4.00;2.47;;;;;;;16.73;90.87;97876.97;4103571;28;20640;-85
2022/06/08 00:17:33;;;;;;;3.53;2.00;;;;;;;16.70;92.58;97874.66;4120820;28;20647;-85
2022/06/08 00:19:37;;;;;;;3.00;1.90;;;;;;;16.63;91.85;97874.41;4131925;28;20648;-85
2022/06/08 00:21:41;;;;;;;3.70;2.30;;;;;;;16.55;90.99;97873.47;4107221;28;20658;-86
2022/06/08 00:23:44;;;;;;;2.53;2.00;;;;;;;16.50;92.88;97877.53;4140723;28;20657;-85
2022/06/08 00:25:48;;;;;;;3.63;1.80;;;;;;;16.45;90.83;97867.44;4121091;28;21257;-85
2022/06/08 00:27:52;;;;;;;2.13;1.80;;;;;;;16.44;92.47;97876.31;4113856;28;20725;-85
2022/06/08 00:29:55;;;;;;;4.30;2.03;;;;;;;16.41;92.05;97871.34;4139350;28;20714;-85
2022/06/08 00:31:58;;;;;;;5.03;2.27;;;;;;;16.37;92.21;97864.69;4139495;28;20631;-86
2022/06/08 00:34:05;;;;;;;3.20;2.50;;;;;;;16.36;92.39;97863.06;4134651;28;20680;-85
2022/06/08 00:36:10;;;;;;;2.50;2.10;;;;;;;16.37;92.62;97863.88;4124640;28;20726;-85
2022/06/08 00:38:15;;;;;;;4.70;2.13;;;;;;;16.40;91.98;97863.59;4129542;28;20731;-85
2022/06/08 00:40:22;;;;;;;4.23;2.30;;;;;;;16.36;91.90;97857.78;4123289;28;20698;-86
2022/06/08 00:42:31;;;;;;;2.50;1.80;;;;;;;16.36;92.54;97859.59;4107458;28;20633;-86
2022/06/08 00:44:37;;;;;;;2.53;1.93;;;;;;;16.34;91.97;97856.25;4129918;28;20627;-85
2022/06/08 00:46:40;;;;;;;3.07;2.27;;;;;;;16.30;92.78;97853.09;4104923;28;20727;-85
2022/06/08 00:48:48;;;;;;;3.83;2.37;;;;;;;16.30;92.97;97863.63;4103447;28;20664;-85
2022/06/08 00:50:54;;;;;;;3.00;2.33;;;;;;;16.27;91.74;97855.22;4127221;28;21250;-85
2022/06/08 00:52:59;;;;;;;3.97;2.00;;;;;;;16.23;91.76;97846.75;4135099;28;20649;-85
2022/06/08 00:55:07;;;;;;;3.73;2.37;;;;;;;16.21;92.97;97853.94;4136220;28;20643;-86
2022/06/08 00:57:12;;;;;;;2.80;2.00;;;;;;;16.21;91.15;97855.75;4103715;28;20623;-86
2022/06/08 00:59:16;;;;;;;2.77;2.07;;;;;;;16.17;91.41;97844.66;4128606;28;20685;-85
2022/06/08 01:01:19;;;;;;;3.60;2.20;;;;;;;16.18;91.97;97848.97;4133563;28;20632;-85
2022/06/08 01:03:33;;;;;;;4.60;2.70;;;;;;;16.18;92.95;97858.69;4120290;28;20641;-85
2022/06/08 01:05:40;;;;;;;3.30;2.33;;;;;;;16.16;94.49;97850.94;4118740;28;20710;-85
2022/06/08 01:07:45;;;;;;;6.07;1.87;;;;;;;16.16;92.35;97850.94;4104004;28;20616;-86
2022/06/08 01:09:50;;;;;;;3.07;2.17;;;;;;;16.17;93.98;97846.47;4119430;28;21082;-85
2022/06/08 01:11:54;;;;;;;3.57;2.20;;;;;;;16.19;92.55;97839.25;4141638;28;20658;-85
2022/06/08 01:13:59;;;;;;;3.13;2.20;;;;;;;16.18;93.75;97842.88;4120876;28;20635;-85
2022/06/08 01:16:04;;;;;;;3.10;2.20;;;;;;;16.15;93.48;97843.19;4138668;28;21083;-85
2022/06/08 01:18:08;;;;;;;3.17;2.10;;;;;;;16.13;94.04;97842.47;4144334;28;20646;-85
2022/06/08 01:20:12;;;;;;;2.40;2.00;;;;;;;16.11;93.38;97839.16;4121374;28;21203;-85
2022/06/08 01:22:19;;;;;;;6.47;2.60;;;;;;;16.08;93.35;97842.09;4113440;28;21012;-85
2022/06/08 01:24:27;;;;;;;2.40;1.93;;;;;;;16.08;92.86;97842.91;4105849;28;20649;-85
2022/06/08 01:27:04;;;;;;;3.50;2.37;;;;;;;16.08;94.36;97832.38;4092466;28;20686;-85
2022/06/08 01:29:13;;;;;;;3.23;2.00;;;;;;;16.08;93.34;97836.81;4121233;28;20647;-85
2022/06/08 01:31:22;;;;;;;3.30;2.20;;;;;;;16.07;94.40;97835.16;4135739;28;20673;-85
2022/06/08 01:33:45;;;;;;;2.30;2.00;;;;;;;16.08;93.68;97832.38;4123495;28;20619;-85
2022/06/08 01:35:58;;;;;;;3.20;2.70;;;;;;;16.06;94.85;97836.16;4127452;28;21217;-85
2022/06/08 01:38:09;;;;;;;4.97;2.30;;;;;;;16.04;93.38;97824.91;4117106;28;21230;-85
2022/06/08 01:40:38;;;;;;;5.83;2.20;;;;;;;16.02;93.41;97821.63;4139877;28;20641;-85
2022/06/08 01:42:52;;;;;;;2.93;2.40;;;;;;;16.05;93.20;97821.31;4127203;28;21216;-85
2022/06/08 01:47:34;;;;;;;3.60;2.40;;;;;;;15.95;94.36;97810.03;4116204;28;20646;-86
2022/06/08 01:50:01;;;;;;;2.70;2.17;;;;;;;15.92;94.19;97815.56;4130899;28;20713;-85
2022/06/08 01:52:23;;;;;;;3.70;2.40;;;;;;;15.91;93.43;97810.47;4122519;28;20676;-85
2022/06/08 01:54:40;;;;;;;3.43;2.47;;;;;;;15.88;94.74;97808.13;4114303;28;20647;-85
2022/06/08 01:56:48;;;;;;;3.77;3.10;;;;;;;15.86;94.94;97795.09;4122370;28;20625;-85
2022/06/08 01:58:59;;;;;;;3.63;2.67;;;;;;;15.82;94.07;97806.88;4122354;28;20634;-85
2022/06/08 02:01:06;;;;;;;4.40;2.70;;;;;;;15.80;93.93;97800.94;4108495;28;20624;-85
2022/06/08 02:03:16;;;;;;;5.67;3.17;;;;;;;15.78;94.01;97799.41;4128588;28;20630;-85
2022/06/08 02:05:24;;;;;;;4.57;2.60;;;;;;;15.74;94.48;97798.88;4114297;28;20632;-85
2022/06/08 02:07:34;;;;;;;4.90;2.40;;;;;;;15.69;93.42;97798.47;4120852;28;20638;-85
2022/06/08 02:09:44;;;;;;;4.03;2.40;;;;;;;15.67;93.24;97796.97;4139144;28;20641;-85
2022/06/08 02:11:56;;;;;;;3.77;2.23;;;;;;;15.63;92.34;97791.16;4125508;28;20705;-85
2022/06/08 02:14:07;;;;;;;3.97;2.60;;;;;;;15.61;92.11;97795.72;4109095;28;20642;-85
2022/06/08 02:16:18;;;;;;;3.57;2.10;;;;;;;15.59;92.88;97797.69;4125823;28;20636;-85
2022/06/08 02:18:29;;;;;;;4.10;2.90;;;;;;;15.58;93.00;97793.38;4108154;28;20639;-85
2022/06/08 02:20:37;;;;;;;5.13;3.00;;;;;;;15.57;91.91;97788.25;4129423;28;20665;-85
2022/06/08 02:22:43;;;;;;;6.80;3.20;;;;;;;15.55;93.38;97788.41;4130958;28;21349;-85
2022/06/08 02:24:53;;;;;;;5.70;3.27;;;;;;;15.54;94.08;97799.06;4123731;28;20633;-85
2022/06/08 02:27:00;;;;;;;6.70;3.70;;;;;;;15.54;93.35;97787.72;4107983;28;20634;-85
2022/06/08 02:29:26;;;;;;;5.00;3.67;;;;;;;15.54;92.98;97787.72;4116055;28;20961;-85
2022/06/08 02:31:32;;;;;;;4.10;3.30;;;;;;;15.53;93.16;97793.94;4110841;28;20750;-85
2022/06/08 02:36:08;;;;;;;4.80;3.53;;;;;;;15.52;92.81;97785.25;4096581;29;20747;-85
2022/06/08 02:38:15;;;;;;;4.90;3.00;;;;;;;15.51;93.17;97782.75;4084881;29;20642;-85
2022/06/08 02:40:23;;;;;;;5.83;3.20;;;;;;;15.47;93.76;97779.59;4089313;29;20667;-85
2022/06/08 02:42:30;;;;;;;3.50;2.80;;;;;;;15.43;92.66;97778.22;4098519;29;20742;-85
2022/06/08 02:44:34;;;;;;;5.30;3.40;;;;;;;15.43;94.60;97780.03;4112245;28;20634;-85
2022/06/08 02:46:42;;;;;;;4.03;2.70;;;;;;;15.43;94.53;97777.41;4131122;28;20901;-85
2022/06/08 02:48:46;;;;;;;3.43;3.00;;;;;;;15.41;93.17;97787.19;4144239;28;20642;-85
2022/06/08 02:50:52;;;;;;;4.00;3.20;;;;;;;15.41;92.89;97785.41;4098209;29;20632;-85
2022/06/08 02:53:08;;;;;;;4.13;2.80;;;;;;;15.42;92.72;97788.88;4114950;28;21199;-85
2022/06/08 02:55:18;;;;;;;4.13;2.90;;;;;;;15.42;93.21;97786.25;4121558;28;20638;-85
2022/06/08 02:57:47;;;;;;;3.90;2.80;;;;;;;15.40;93.41;97780.31;4139750;28;20639;-85
2022/06/08 02:59:53;;;;;;;3.37;2.90;;;;;;;15.39;93.83;97786.53;4124580;28;20991;-85
2022/06/08 03:02:03;;;;;;;3.43;3.10;;;;;;;15.36;94.12;97785.00;4110505;28;20631;-85
2022/06/08 03:04:12;;;;;;;4.30;2.50;;;;;;;15.33;93.44;97782.66;4124606;28;20631;-85
2022/06/08 03:06:18;;;;;;;3.80;2.80;;;;;;;15.31;94.00;97775.91;4126100;28;20674;-85
2022/06/08 03:08:23;;;;;;;4.17;2.80;;;;;;;15.29;92.67;97775.19;4134599;28;20638;-85
2022/06/08 03:10:32;;;;;;;3.90;3.17;;;;;;;15.27;94.06;97772.69;4125490;28;20645;-86
2022/06/08 03:12:38;;;;;;;4.80;3.03;;;;;;;15.25;93.57;97772.03;4138309;28;21169;-85
2022/06/08 03:14:47;;;;;;;4.23;3.00;;;;;;;15.23;93.81;97773.97;4140146;28;21196;-85
2022/06/08 03:16:59;;;;;;;2.93;2.47;;;;;;;15.21;91.90;97775.88;4112912;28;20642;-85
2022/06/08 03:19:03;;;;;;;4.73;3.30;;;;;;;15.17;91.82;97757.94;4121872;28;21235;-85
2022/06/08 03:21:09;;;;;;;3.63;2.13;;;;;;;15.15;93.21;97762.47;4107583;28;20660;-85
2022/06/08 03:23:12;;;;;;;3.43;2.70;;;;;;;15.09;91.72;97763.03;4137889;28;20955;-85
2022/06/08 03:25:16;;;;;;;4.60;3.37;;;;;;;15.06;93.19;97762.47;4119130;28;20631;-85
2022/06/08 03:27:22;;;;;;;3.80;3.13;;;;;;;15.08;92.05;97769.25;4119429;28;20675;-85
2022/06/08 03:29:31;;;;;;;3.77;2.87;;;;;;;15.07;92.29;97764.16;4122141;28;20712;-85
2022/06/08 03:31:36;;;;;;;4.70;3.17;;;;;;;15.07;92.20;97764.97;4121109;28;20681;-85
2022/06/08 03:33:40;;;;;;;4.83;2.57;;;;;;;15.05;92.93;97761.66;4128010;28;21041;-85
2022/06/08 03:35:46;;;;;;;5.87;2.63;;;;;;;15.05;93.49;97766.06;4130446;28;21036;-85
2022/06/08 03:37:53;;;;;;;4.13;3.10;;;;;;;14.99;91.82;97758.75;4136000;28;20719;-85
2022/06/08 03:39:59;;;;;;;3.10;2.67;;;;;;;14.94;92.56;97758.34;4138952;28;20621;-85
2022/06/08 03:42:02;;;;;;;5.60;2.80;;;;;;;14.92;93.35;97763.72;4124940;28;20620;-85
2022/06/08 03:44:05;;;;;;;3.80;2.80;;;;;;;14.92;91.93;97752.41;4123923;28;20650;-85
2022/06/08 03:46:10;;;;;;;3.47;3.13;;;;;;;14.91;93.48;97750.75;4130923;28;20623;-85
2022/06/08 03:48:15;;;;;;;3.40;2.87;;;;;;;14.91;93.70;97762.06;4122101;28;20627;-85
2022/06/08 03:50:21;;;;;;;6.00;3.10;;;;;;;14.92;92.19;97755.84;4138884;28;21092;-85
2022/06/08 03:52:26;;;;;;;4.30;2.57;;;;;;;14.96;92.86;97759.88;4125045;28;20662;-85
2022/06/08 03:54:33;;;;;;;4.37;3.00;;;;;;;14.99;92.93;97743.84;4125434;28;20639;-85
2022/06/08 03:56:38;;;;;;;5.70;2.90;;;;;;;15.01;93.17;97751.56;4104370;28;20645;-85
2022/06/08 03:58:42;;;;;;;4.57;2.80;;;;;;;15.01;93.30;97741.88;4143734;28;20637;-85
2022/06/08 04:00:50;;;;;;;4.47;2.90;;;;;;;15.04;93.05;97746.03;4138447;28;21026;-85
2022/06/08 04:02:54;;;;;;;3.13;2.63;;;;;;;15.05;91.63;97743.28;4114426;28;20644;-85
2022/06/08 04:05:07;;;;;;;4.53;2.60;;;;;;;15.07;93.15;97743.94;4109109;28;20621;-85
2022/06/08 04:07:10;;;;;;;4.80;2.87;;;;;;;15.12;93.95;97734.69;4107500;28;20643;-85
2022/06/08 04:09:18;;;;;;;4.70;2.77;;;;;;;15.20;93.37;97734.84;4122576;28;20619;-85
2022/06/08 04:11:24;;;;;;;3.30;2.80;;;;;;;15.28;93.99;97755.16;4123054;28;20685;-85
2022/06/08 04:13:30;;;;;;;4.10;2.80;;;;;;;15.29;93.61;97741.03;4120318;28;20678;-85
2022/06/08 04:15:44;;;;;;;3.20;2.60;;;;;;;15.35;94.10;97749.19;4124625;28;21019;-85
2022/06/08 04:17:55;;;;;;;4.90;2.90;;;;;;;15.38;93.64;97751.53;4128879;28;20637;-85
2022/06/08 04:19:58;;;;;;;4.80;2.90;;;;;;;15.44;94.32;97755.38;4133397;28;20675;-85
2022/06/08 04:22:05;;;;;;;6.00;3.57;;;;;;;15.50;94.38;97754.81;4116601;28;21280;-85
2022/06/08 04:24:13;;;;;;;7.33;3.40;;;;;;;15.55;92.35;97761.31;4105467;28;20635;-86
2022/06/08 04:26:22;;;;;;;4.40;3.53;;;;;;;15.60;93.53;97761.69;4117775;28;21223;-85
2022/06/08 04:28:30;;;;;;;4.50;3.30;;;;;;;15.64;92.30;97765.69;4136278;28;20656;-85
2022/06/08 04:30:38;;;;;;;5.10;3.77;;;;;;;15.70;92.73;97768.56;4122524;28;20712;-85
2022/06/08 04:32:42;;;;;;;4.87;3.70;;;;;;;15.75;93.86;97758.44;4126854;28;20708;-85
2022/06/08 04:34:46;;;;;;;8.00;3.77;;;;;;;15.82;91.04;97762.16;4114127;28;20635;-85
2022/06/08 04:36:50;;;;;;;5.10;3.33;;;;;;;15.86;90.89;97760.91;4117081;28;20650;-85
2022/06/08 04:38:57;;;;;;;4.00;3.50;;;;;;;15.92;91.95;97760.34;4121327;28;21019;-85
2022/06/08 04:41:01;;;;;;;5.00;3.70;;;;;;;15.98;92.22;97770.25;4108225;28;21123;-85
2022/06/08 04:43:06;;;;;;;5.10;3.50;;;;;;;16.05;91.97;97769.53;4109609;28;20738;-85
2022/06/08 04:45:11;;;;;;;4.97;3.50;;;;;;;16.15;91.48;97769.50;4126058;28;20645;-85
2022/06/08 04:47:14;;;;;;;6.57;3.30;;;;;;;16.27;93.01;97768.34;4106123;28;21059;-85
2022/06/08 04:49:35;;;;;;;4.73;3.77;;;;;;;16.38;92.55;97768.97;4121646;28;20681;-85
2022/06/08 04:51:39;;;;;;;5.60;3.03;;;;;;;16.47;91.08;97764.63;4103628;28;20632;-85
2022/06/08 04:53:45;;;;;;;5.70;3.20;;;;;;;16.51;91.06;97765.00;4103004;28;21354;-85
2022/06/08 04:55:50;;;;;;;5.30;3.40;;;;;;;16.55;92.45;97757.63;4124923;28;21194;-85
2022/06/08 04:57:54;;;;;;;4.33;3.40;;;;;;;16.60;91.09;97773.81;4125501;28;20689;-85
2022/06/08 04:59:57;;;;;;;4.90;3.30;;;;;;;16.61;90.72;97757.00;4123843;28;20634;-85
2022/06/08 05:02:01;;;;;;;7.70;3.63;;;;;;;16.62;90.61;97754.22;4135754;28;21009;-85
2022/06/08 05:04:05;;;;;;;4.60;3.13;;;;;;;16.65;91.17;97759.19;4120380;28;20733;-85
2022/06/08 05:06:08;;;;;;;3.87;2.90;;;;;;;16.70;91.70;97756.97;4126502;28;21197;-85
2022/06/08 05:08:12;;;;;;;4.60;3.20;;;;;;;16.75;91.84;97762.59;4115976;28;20678;-85
2022/06/08 05:10:19;;;;;;;3.80;2.90;;;;;;;16.81;92.24;97769.91;4115040;28;20627;-85
2022/06/08 05:12:24;;;;;;;4.20;2.97;;;;;;;16.87;91.05;97757.91;4128948;28;21332;-85
2022/06/08 05:14:27;;;;;;;4.07;3.03;;;;;;;16.94;92.22;97759.78;4112953;28;21123;-85
2022/06/08 05:16:32;;;;;;;6.43;3.40;;;;;;;17.02;91.35;97768.63;4111354;28;20655;-84
2022/06/08 05:18:38;;;;;;;4.23;3.57;;;;;;;17.09;91.98;97763.56;4119331;28;20631;-85
2022/06/08 05:20:46;;;;;;;5.80;3.90;;;;;;;17.14;92.47;97771.84;4118383;28;20641;-85
2022/06/08 05:22:55;;;;;;;4.00;3.60;;;;;;;17.17;92.09;97768.88;4135433;28;21027;-85
2022/06/08 05:25:03;;;;;;;6.10;3.63;;;;;;;17.17;91.88;97766.25;4139708;28;20641;-85
2022/06/08 05:27:10;;;;;;;6.67;3.80;;;;;;;17.22;91.29;97767.47;4113121;28;20739;-85
2022/06/08 05:29:16;;;;;;;4.80;3.40;;;;;;;17.30;92.19;97766.72;4108597;28;20642;-85
2022/06/08 05:31:19;;;;;;;4.30;3.57;;;;;;;17.35;90.67;97764.44;4130931;28;20642;-85
2022/06/08 05:33:27;;;;;;;3.57;3.00;;;;;;;17.40;91.61;97756.91;4134835;28;20666;-86
2022/06/08 05:35:35;;;;;;;4.47;3.23;;;;;;;17.49;90.49;97762.91;4118747;28;21213;-85
2022/06/08 05:37:38;;;;;;;4.47;3.47;;;;;;;17.65;90.43;97763.00;4140434;28;20634;-85
2022/06/08 05:39:42;;;;;;;3.87;3.00;;;;;;;17.89;90.45;97765.78;4144117;28;20630;-85
2022/06/08 05:41:46;;;;;;;7.43;3.80;;;;;;;18.14;88.55;97764.94;4125745;28;20740;-85
2022/06/08 05:43:49;;;;;;;3.20;2.80;;;;;;;18.43;87.29;97768.81;4118501;28;20976;-85
2022/06/08 05:45:55;;;;;;;6.97;3.50;;;;;;;18.81;87.59;97771.72;4141871;28;20645;-85
2022/06/08 05:48:01;;;;;;;4.50;3.53;;;;;;;19.20;87.38;97770.13;4112006;28;20688;-85
2022/06/08 05:50:06;;;;;;;5.20;3.00;;;;;;;19.56;86.17;97759.84;4128878;28;20668;-86
2022/06/08 05:52:10;;;;;;;5.67;2.63;;;;;;;19.92;84.53;97761.09;4131098;28;20646;-86
2022/06/08 05:54:14;;;;;;;4.27;3.00;;;;;;;20.30;82.86;97766.44;4116267;28;20662;-85
2022/06/08 05:56:18;;;;;;;3.43;2.70;;;;;;;20.60;81.58;97763.78;4133716;28;21077;-85
2022/06/08 05:58:29;;;;;;;4.27;2.43;;;;;;;20.92;78.59;97760.97;4135729;28;20639;-86
2022/06/08 06:00:36;;;;;;;3.73;2.70;;;;;;;21.25;76.66;97757.06;4130508;28;20666;-86
2022/06/08 06:02:40;;;;;;;4.63;2.60;;;;;;;21.49;76.96;97763.84;4144320;28;20631;-86
2022/06/08 06:04:44;;;;;;;3.20;2.03;;;;;;;21.70;74.90;97763.97;4125117;28;21002;-86
2022/06/08 06:06:48;;;;;;;3.67;2.20;;;;;;;22.03;74.35;97762.63;4110154;28;20631;-85
2022/06/08 06:08:53;;;;;;;6.30;2.10;;;;;;;22.33;72.65;97771.25;4109888;28;21011;-86
2022/06/08 06:10:58;;;;;;;3.53;3.00;;;;;;;22.55;70.90;97772.13;4137422;28;20646;-85
2022/06/08 06:13:08;;;;;;;2.30;1.97;;;;;;;22.77;69.40;97772.00;4140104;28;20630;-86
2022/06/08 06:15:29;;;;;;;3.20;2.00;;;;;;;22.88;69.33;97771.50;4131090;28;20971;-86
2022/06/08 06:17:32;;;;;;;3.33;2.10;;;;;;;23.09;68.02;97771.53;4110662;28;20625;-86
2022/06/08 06:19:37;;;;;;;3.90;2.20;;;;;;;23.27;68.77;97764.75;4106967;28;20633;-86
2022/06/08 06:21:49;;;;;;;2.73;2.17;;;;;;;23.49;67.40;97767.22;4111025;28;20661;-85
2022/06/08 06:24:15;;;;;;;2.63;1.90;;;;;;;23.75;67.76;97756.78;4120968;28;20625;-85
2022/06/08 06:26:37;;;;;;;3.70;2.20;;;;;;;23.98;66.54;97763.53;4147820;28;20632;-86
2022/06/08 06:28:56;;;;;;;4.60;2.23;;;;;;;24.17;68.12;97752.94;4129411;28;20643;-85
2022/06/08 06:31:18;;;;;;;3.93;2.20;;;;;;;24.44;67.58;97765.44;4124146;28;20631;-86
2022/06/08 06:33:35;;;;;;;3.37;1.97;;;;;;;24.65;67.24;97766.13;4131164;28;20717;-86
2022/06/08 06:35:41;;;;;;;3.03;1.90;;;;;;;24.76;66.53;97757.56;4122824;28;20662;-86
2022/06/08 06:37:45;;;;;;;3.93;2.40;;;;;;;24.90;63.91;97766.44;4123207;28;20678;-85
2022/06/08 06:39:48;;;;;;;9.53;2.30;;;;;;;25.03;64.75;97748.59;4113553;28;20633;-86
2022/06/08 06:41:59;;;;;;;6.10;2.00;;;;;;;25.22;66.82;97751.31;4121411;28;21237;-86
2022/06/08 06:44:07;;;;;;;3.10;1.93;;;;;;;25.43;66.26;97756.47;4106930;28;20639;-85
2022/06/08 06:46:16;;;;;;;3.27;2.00;;;;;;;25.51;62.67;97750.09;4130606;28;21224;-85
2022/06/08 06:48:43;;;;;;;2.93;2.00;;;;;;;25.47;61.59;97747.03;4106178;28;20646;-86
2022/06/08 06:50:48;;;;;;;4.70;2.20;;;;;;;25.45;62.13;97754.41;4125780;28;21002;-86
2022/06/08 06:52:52;;;;;;;4.23;1.87;;;;;;;25.50;61.09;97746.63;4119588;28;20623;-86
2022/06/08 06:54:57;;;;;;;3.50;2.10;;;;;;;25.48;61.46;97758.53;4112725;28;20661;-86
2022/06/08 06:57:00;;;;;;;3.80;1.97;;;;;;;25.66;62.09;97751.56;4130818;28;20755;-86
2022/06/08 06:59:04;;;;;;;4.17;2.00;;;;;;;25.85;63.26;97753.41;4131977;28;20994;-86
2022/06/08 07:01:09;;;;;;;6.23;2.07;;;;;;;26.03;61.57;97751.72;4131065;28;20630;-86
2022/06/08 07:03:13;;;;;;;5.40;1.80;;;;;;;26.19;61.75;97746.75;4126794;28;21106;-86
2022/06/08 07:05:23;;;;;;;4.07;1.87;;;;;;;26.30;63.74;97743.47;4141294;28;21271;-86
2022/06/08 07:07:29;;;;;;;2.80;1.60;;;;;;;26.46;62.03;97740.34;4133691;28;20728;-85
2022/06/08 07:09:33;;;;;;;4.70;2.10;;;;;;;26.52;59.45;97746.66;4139051;28;20732;-86
2022/06/08 07:11:39;;;;;;;3.87;2.00;;;;;;;26.56;58.37;97738.81;4104380;28;21254;-86
2022/06/08 07:13:50;;;;;;;3.67;1.80;;;;;;;26.52;60.13;97731.44;4114124;28;21027;-86
2022/06/08 07:15:53;;;;;;;4.40;2.10;;;;;;;26.63;59.34;97730.78;4122874;28;21307;-86
2022/06/08 07:17:57;;;;;;;4.00;1.90;;;;;;;26.72;60.07;97726.81;4123370;28;21251;-86
2022/06/08 07:20:03;;;;;;;3.63;1.90;;;;;;;26.72;59.92;97722.28;4125917;28;20684;-86
2022/06/08 07:22:10;;;;;;;3.37;2.13;;;;;;;26.86;58.56;97712.31;4121014;28;21296;-86
2022/06/08 07:24:18;;;;;;;3.07;1.90;;;;;;;26.84;58.56;97709.03;4116853;28;20667;-86
2022/06/08 07:26:24;;;;;;;3.20;1.70;;;;;;;26.88;59.47;97708.41;4121529;28;20634;-86
2022/06/08 07:28:28;;;;;;;4.03;1.93;;;;;;;26.94;60.21;97704.88;4130966;28;20673;-86
2022/06/08 07:30:37;;;;;;;2.77;1.80;;;;;;;27.06;59.93;97697.78;4123922;28;20639;-86
2022/06/08 07:32:40;;;;;;;4.57;1.57;;;;;;;26.98;56.17;97695.38;4138406;28;20625;-86
2022/06/08 07:34:43;;;;;;;5.80;2.27;;;;;;;26.80;57.31;97697.94;4129076;28;20658;-86
2022/06/08 07:36:46;;;;;;;4.30;1.90;;;;;;;27.00;59.83;97689.81;4130640;28;20636;-86
2022/06/08 07:38:49;;;;;;;5.27;2.37;;;;;;;27.09;59.40;97692.84;4118698;28;20630;-86
2022/06/08 07:40:54;;;;;;;3.97;1.67;;;;;;;27.25;58.88;97689.59;4125334;28;20722;-86
2022/06/08 07:43:21;;;;;;;3.20;1.70;;;;;;;27.40;57.76;97689.28;4128223;28;20688;-86
2022/06/08 07:45:25;;;;;;;3.27;1.63;;;;;;;27.36;57.38;97688.88;4125330;28;20640;-86
2022/06/08 07:47:28;;;;;;;3.33;1.90;;;;;;;27.34;58.19;97685.63;4140197;28;20685;-86
2022/06/08 07:49:39;;;;;;;3.23;1.70;;;;;;;27.42;57.91;97681.84;4123268;28;20658;-86
2022/06/08 07:51:43;;;;;;;4.23;1.90;;;;;;;27.50;59.29;97678.91;4128461;28;20684;-86
2022/06/08 07:53:48;;;;;;;4.10;1.83;;;;;;;27.59;59.50;97675.75;4124900;28;20681;-86
2022/06/08 07:55:51;;;;;;;2.87;1.67;;;;;;;27.72;55.44;97667.56;4100344;28;21014;-86
2022/06/08 07:58:05;;;;;;;4.00;2.10;;;;;;;27.67;57.60;97668.22;4104559;28;20634;-86
2022/06/08 08:00:34;;;;;;;4.77;1.60;;;;;;;27.68;58.31;97666.34;4142196;28;20633;-86
2022/06/08 08:02:37;;;;;;;3.90;1.97;;;;;;;27.56;57.36;97663.59;4137248;28;20726;-86
2022/06/08 08:04:41;;;;;;;4.93;2.00;;;;;;;27.62;58.37;97656.53;4141871;28;20728;-86
2022/06/08 08:06:47;;;;;;;4.07;1.97;;;;;;;27.69;55.55;97655.41;4125424;28;20698;-86
2022/06/08 08:08:50;;;;;;;5.73;2.33;;;;;;;27.84;57.85;97649.69;4135649;28;20700;-86
2022/06/08 08:10:53;;;;;;;3.13;1.70;;;;;;;27.92;57.70;97641.34;4142951;28;20652;-87
2022/06/08 08:12:59;;;;;;;3.83;1.77;;;;;;;28.07;55.65;97646.13;4123432;28;20644;-86
2022/06/08 08:15:20;;;;;;;3.60;1.70;;;;;;;28.13;55.75;97649.78;4153598;28;20715;-86
2022/06/08 08:17:23;;;;;;;4.70;1.90;;;;;;;28.01;56.89;97640.84;4126107;28;21206;-86
2022/06/08 08:19:26;;;;;;;4.07;1.73;;;;;;;27.34;56.02;97628.53;4121353;28;20637;-86
2022/06/08 08:21:32;;;;;;;4.67;2.13;;;;;;;26.67;56.92;97625.72;4146466;28;20650;-86
2022/06/08 08:23:35;;;;;;;4.93;1.50;;;;;;;26.51;59.26;97628.09;4124253;28;20621;-86
2022/06/08 08:25:38;;;;;;;3.80;1.80;;;;;;;26.33;59.52;97619.97;4100798;28;20636;-86
2022/06/08 08:27:41;;;;;;;3.83;1.90;;;;;;;25.98;58.17;97628.53;4121897;28;21044;-86
2022/06/08 08:29:45;;;;;;;4.80;1.60;;;;;;;25.89;59.90;97628.97;4130126;28;20645;-86
2022/06/08 08:31:51;;;;;;;5.27;1.80;;;;;;;26.28;60.13;97621.63;4108137;28;20634;-86
2022/06/08 08:33:54;;;;;;;4.00;1.90;;;;;;;26.09;58.80;97623.34;4105068;28;20643;-86
2022/06/08 08:35:57;;;;;;;4.57;2.27;;;;;;;25.84;59.10;97610.06;4129868;28;20655;-86
2022/06/08 08:38:01;;;;;;;4.87;2.03;;;;;;;25.61;58.64;97615.03;4111923;28;21200;-86
2022/06/08 08:40:12;;;;;;;3.20;1.70;;;;;;;25.41;59.85;97608.94;4109566;28;21189;-86
2022/06/08 08:42:24;;;;;;;4.33;2.20;;;;;;;25.32;63.40;97612.84;4102488;28;20637;-86
2022/06/08 08:44:35;;;;;;;3.87;1.90;;;;;;;25.33;60.44;97608.31;4124247;28;20673;-86
2022/06/08 08:46:59;;;;;;;3.10;1.80;;;;;;;25.16;61.59;97604.44;4101117;28;20997;-86
2022/06/08 08:49:06;;;;;;;5.10;2.40;;;;;;;25.35;61.85;97599.06;4125838;28;20658;-86
2022/06/08 08:51:15;;;;;;;4.20;1.60;;;;;;;25.72;62.53;97609.06;4112818;28;21063;-86
2022/06/08 08:53:29;;;;;;;5.27;1.43;;;;;;;26.03;62.05;97596.63;4134721;28;20627;-86
2022/06/08 08:55:38;;;;;;;5.63;1.50;;;;;;;26.38;60.51;97592.56;4119821;28;21217;-86
2022/06/08 08:57:44;;;;;;;3.90;1.87;;;;;;;26.56;57.47;97598.81;4129936;28;20667;-86
2022/06/08 09:00:16;;;;;;;3.30;1.40;;;;;;;26.84;58.35;97589.34;4121407;28;20663;-86
2022/06/08 09:04:53;;;;;;;4.47;1.83;;;;;;;27.11;57.53;97588.94;4116322;28;20672;-86
2022/06/08 09:06:56;;;;;;;2.63;1.50;;;;;;;27.21;56.08;97596.47;4110295;28;20643;-86
2022/06/08 09:09:02;;;;;;;3.20;1.60;;;;;;;27.12;57.11;97593.28;4100681;28;20639;-86
2022/06/08 09:11:14;;;;;;;3.87;1.80;;;;;;;27.24;57.41;97590.69;4128368;28;20733;-87
2022/06/08 09:13:23;;;;;;;5.17;1.90;;;;;;;27.34;56.08;97583.78;4128805;28;20716;-86
2022/06/08 09:15:46;;;;;;;6.17;1.70;;;;;;;27.46;57.88;97576.66;4119207;28;20750;-86
2022/06/08 09:17:57;;;;;;;5.13;1.67;;;;;;;27.38;57.04;97581.47;4122807;28;20677;-87
2022/06/08 09:20:03;;;;;;;3.90;1.60;;;;;;;27.45;56.17;97574.19;4135660;28;20648;-87
2022/06/08 09:22:24;;;;;;;4.90;1.73;;;;;;;27.44;58.55;97576.06;4139833;28;21089;-86
2022/06/08 09:24:31;;;;;;;2.93;1.70;;;;;;;27.20;57.82;97571.56;4128085;28;20653;-87
2022/06/08 09:26:40;;;;;;;4.73;2.00;;;;;;;26.80;58.02;97568.59;4129326;28;21239;-87
2022/06/08 09:29:10;;;;;;;3.03;1.93;;;;;;;26.63;59.30;97562.94;4139232;28;20645;-87
2022/06/08 09:31:28;;;;;;;2.90;1.77;;;;;;;26.90;60.02;97560.91;4122980;28;20681;-86
2022/06/08 09:33:37;;;;;;;3.77;1.53;;;;;;;26.91;58.28;97557.19;4137857;28;21074;-86
2022/06/08 09:35:53;;;;;;;3.20;1.90;;;;;;;26.95;59.51;97550.38;4138603;28;21233;-87
2022/06/08 09:37:59;;;;;;;3.33;1.50;;;;;;;26.67;57.33;97555.28;4108929;28;20650;-87
2022/06/08 09:40:03;;;;;;;2.93;1.50;;;;;;;26.79;57.64;97548.19;4109833;28;20635;-86
2022/06/08 09:42:19;;;;;;;2.43;1.47;;;;;;;27.02;57.41;97551.13;4117894;28;21238;-86
2022/06/08 09:44:29;;;;;;;3.73;1.40;;;;;;;27.16;54.22;97543.56;4139799;28;20621;-85
2022/06/08 09:52:04;;;;;;;3.37;1.40;;;;;;;27.49;57.21;97545.91;4139262;28;20626;-86
2022/06/08 09:54:15;;;;;;;5.30;1.53;;;;;;;27.24;55.84;97535.25;4087134;28;20624;-86
2022/06/08 09:56:25;;;;;;;4.50;1.47;;;;;;;27.25;57.40;97536.06;4129282;28;20662;-86
2022/06/08 09:58:38;;;;;;;2.37;1.50;;;;;;;27.27;58.65;97534.81;4132326;28;20718;-86
2022/06/08 10:00:45;;;;;;;3.03;1.40;;;;;;;27.26;53.97;97527.81;4141501;28;20637;-86
2022/06/08 10:03:05;;;;;;;2.80;1.57;;;;;;;27.32;54.95;97532.28;4124372;28;21209;-86
2022/06/08 10:05:22;;;;;;;2.50;1.30;;;;;;;27.25;52.80;97520.00;4132891;28;21229;-86
2022/06/08 10:07:29;;;;;;;3.00;1.20;;;;;;;27.26;53.82;97518.97;4143564;28;20632;-86
2022/06/08 10:09:48;;;;;;;2.20;1.20;;;;;;;27.28;56.56;97519.53;4141270;28;20779;-88
2022/06/08 10:12:06;;;;;;;2.33;1.10;;;;;;;27.33;54.13;97512.47;4121616;28;20635;-86
2022/06/08 10:14:32;;;;;;;5.50;1.60;;;;;;;27.18;54.05;97508.50;4140283;28;20643;-86
2022/06/08 10:16:40;;;;;;;5.00;1.33;;;;;;;27.18;53.73;97506.66;4136462;28;20657;-86